createdAt,value
2023-04-16T00:02:25.566Z,98235.66
2023-04-16T00:04:55.092Z,98235.81
2023-04-16T00:07:25.896Z,98231.59
2023-04-16T00:09:56.253Z,98234.81
2023-04-16T00:12:26.253Z,98242.66
2023-04-16T00:14:55.768Z,98236.88
2023-04-16T00:17:25.715Z,98233.66
2023-04-16T00:19:56.106Z,98233.09
2023-04-16T00:22:27.186Z,98225.63
2023-04-16T00:24:57.633Z,98227.78
2023-04-16T00:27:26.550Z,98227.16
2023-04-16T00:29:56.897Z,98215.78
2023-04-16T00:32:28.113Z,98224.44
2023-04-16T00:34:57.030Z,98212.81
2023-04-16T00:37:29.210Z,98224.91
2023-04-16T00:39:59.570Z,98219.38
2023-04-16T00:42:29.102Z,98223.78
2023-04-16T00:44:58.668Z,98230.69
2023-04-16T00:47:28.936Z,98224.31
2023-04-16T00:49:58.439Z,98234.75
2023-04-16T00:52:33.060Z,98236.91
2023-04-16T00:55:03.360Z,98237.09
2023-04-16T00:57:34.465Z,98235.63
2023-04-16T01:00:04.637Z,98226.66
2023-04-16T01:02:36.352Z,98238.41
2023-04-16T01:05:10.081Z,98234.38
2023-04-16T01:07:40.382Z,98237.59
2023-04-16T01:10:12.913Z,98249.84
2023-04-16T01:12:43.033Z,98257.84
2023-04-16T01:15:13.247Z,98257.75
2023-04-16T01:17:43.814Z,98257.56
2023-04-16T01:20:13.673Z,98258.88
2023-04-16T01:22:45.228Z,98268.53
2023-04-16T01:25:16.915Z,98273.09
2023-04-16T01:27:46.323Z,98279.63
2023-04-16T01:30:15.745Z,98273.56
2023-04-16T01:32:47.248Z,98273.22
2023-04-16T01:35:18.684Z,98273.22
2023-04-16T01:37:51.385Z,98280.88
2023-04-16T01:40:21.323Z,98277.28
2023-04-16T01:42:51.202Z,98280.53
2023-04-16T01:45:21.926Z,98276.47
2023-04-16T01:47:52.005Z,98282.84
2023-04-16T01:50:21.770Z,98275.66
2023-04-16T01:52:53.057Z,98283.28
2023-04-16T01:55:22.998Z,98289.34
2023-04-16T01:57:54.359Z,98292.94
2023-04-16T02:00:24.609Z,98291.00
2023-04-16T02:02:55.049Z,98290.50
2023-04-16T02:05:24.118Z,98293.75
2023-04-16T02:07:54.818Z,98296.19
2023-04-16T02:10:26.025Z,98292.59
2023-04-16T02:12:54.958Z,98294.84
2023-04-16T02:15:25.428Z,98296.66
2023-04-16T02:17:57.144Z,98294.50
2023-04-16T02:20:26.286Z,98290.25
2023-04-16T02:22:57.156Z,98287.31
2023-04-16T02:25:27.988Z,98298.75
2023-04-16T02:27:57.334Z,98290.25
2023-04-16T02:30:27.314Z,98289.13
2023-04-16T02:32:57.946Z,98291.44
2023-04-16T02:35:29.461Z,98283.75
2023-04-16T02:38:00.406Z,98293.88
2023-04-16T02:40:30.434Z,98295.69
2023-04-16T02:42:59.980Z,98296.19
2023-04-16T02:45:29.466Z,98296.34
2023-04-16T02:48:00.121Z,98300.13
2023-04-16T02:50:30.029Z,98305.00
2023-04-16T02:53:01.896Z,98306.63
2023-04-16T02:55:31.880Z,98304.03
2023-04-16T02:58:01.217Z,98298.31
2023-04-16T03:00:31.213Z,98300.81
2023-04-16T03:03:00.788Z,98295.88
2023-04-16T03:05:30.394Z,98300.78
2023-04-16T03:08:01.757Z,98300.44
2023-04-16T03:10:31.493Z,98298.97
2023-04-16T03:13:01.415Z,98299.31
2023-04-16T03:15:31.624Z,98300.13
2023-04-16T03:18:01.556Z,98302.09
2023-04-16T03:20:31.047Z,98303.72
2023-04-16T03:23:01.352Z,98298.69
2023-04-16T03:25:31.825Z,98294.78
2023-04-16T03:28:03.784Z,98299.53
2023-04-16T03:30:32.791Z,98303.13
2023-04-16T03:33:03.255Z,98297.91
2023-04-16T03:35:33.356Z,98313.56
2023-04-16T03:38:04.335Z,98308.53
2023-04-16T03:40:34.362Z,98311.59
2023-04-16T03:43:04.669Z,98317.53
2023-04-16T03:45:35.593Z,98313.28
2023-04-16T03:48:05.449Z,98311.00
2023-04-16T03:50:35.472Z,98319.81
2023-04-16T03:53:07.208Z,98318.19
2023-04-16T03:55:37.239Z,98314.94
2023-04-16T03:58:08.219Z,98316.22
2023-04-16T04:00:37.949Z,98314.59
2023-04-16T04:03:08.272Z,98314.59
2023-04-16T04:05:40.166Z,98320.28
2023-04-16T04:08:12.400Z,98316.88
2023-04-16T04:10:42.772Z,98317.59
2023-04-16T04:13:13.812Z,98307.00
2023-04-16T04:15:45.534Z,98315.94
2023-04-16T04:18:16.710Z,98311.75
2023-04-16T04:20:46.936Z,98312.94
2023-04-16T04:23:18.976Z,98317.13
2023-04-16T04:25:49.516Z,98318.75
2023-04-16T04:28:19.124Z,98321.84
2023-04-16T04:30:49.509Z,98326.72
2023-04-16T04:33:18.926Z,98332.28
2023-04-16T04:35:49.005Z,98329.06
2023-04-16T04:38:22.227Z,98326.94
2023-04-16T04:40:52.202Z,98333.25
2023-04-16T04:43:21.688Z,98335.56
2023-04-16T04:45:52.144Z,98337.16
2023-04-16T04:48:26.239Z,98342.38
2023-04-16T04:50:55.956Z,98339.97
2023-04-16T04:53:26.974Z,98346.63
2023-04-16T04:56:05.390Z,98346.16
2023-04-16T04:58:42.291Z,98350.41
2023-04-16T05:01:12.778Z,98349.38
2023-04-16T05:03:42.833Z,98360.00
2023-04-16T05:06:12.827Z,98359.19
2023-04-16T05:08:43.679Z,98363.44
2023-04-16T05:11:13.605Z,98362.97
2023-04-16T05:13:44.704Z,98375.00
2023-04-16T05:16:15.181Z,98370.78
2023-04-16T05:18:45.233Z,98380.53
2023-04-16T05:21:13.677Z,98372.06
2023-04-16T05:23:44.479Z,98379.25
2023-04-16T05:26:14.457Z,98366.19
2023-04-16T05:28:43.951Z,98366.50
2023-04-16T05:31:14.542Z,98367.66
2023-04-16T05:33:44.623Z,98377.28
2023-04-16T05:36:16.154Z,98380.88
2023-04-16T05:38:47.821Z,98393.41
2023-04-16T05:41:18.066Z,98393.06
2023-04-16T05:43:48.499Z,98404.00
2023-04-16T05:46:18.485Z,98399.75
2023-04-16T05:48:48.545Z,98400.38
2023-04-16T05:51:19.506Z,98388.97
2023-04-16T05:53:51.529Z,98399.88
2023-04-16T05:56:22.489Z,98394.50
2023-04-16T05:58:52.917Z,98403.16
2023-04-16T06:01:23.849Z,98394.97
2023-04-16T06:03:53.341Z,98405.91
2023-04-16T06:06:22.458Z,98409.00
2023-04-16T06:08:54.478Z,98403.31
2023-04-16T06:11:25.131Z,98404.59
2023-04-16T06:13:55.312Z,98406.22
2023-04-16T06:16:24.714Z,98416.97
2023-04-16T06:18:54.936Z,98409.75
2023-04-16T06:21:26.784Z,98415.47
2023-04-16T06:23:58.190Z,98413.66
2023-04-16T06:26:28.112Z,98410.44
2023-04-16T06:28:58.440Z,98410.91
2023-04-16T06:31:30.472Z,98411.25
2023-04-16T06:34:00.874Z,98419.69
2023-04-16T06:36:29.917Z,98413.00
2023-04-16T06:39:00.915Z,98410.22
2023-04-16T06:41:31.070Z,98415.28
2023-04-16T06:44:00.666Z,98417.06
2023-04-16T06:46:30.742Z,98424.72
2023-04-16T06:49:03.199Z,98423.38
2023-04-16T06:51:33.470Z,98431.69
2023-04-16T06:54:04.602Z,98432.03
2023-04-16T06:56:34.355Z,98420.03
2023-04-16T06:59:04.536Z,98416.09
2023-04-16T07:01:34.882Z,98423.09
2023-04-16T07:04:04.460Z,98429.63
2023-04-16T07:06:35.464Z,98428.25
2023-04-16T07:09:07.137Z,98432.00
2023-04-16T07:11:37.454Z,98428.84
2023-04-16T07:14:08.062Z,98433.44
2023-04-16T07:16:38.327Z,98436.53
2023-04-16T07:19:08.152Z,98440.94
2023-04-16T07:21:37.031Z,98437.34
2023-04-16T07:24:09.555Z,98431.63
2023-04-16T07:26:39.274Z,98426.41
2023-04-16T07:29:09.109Z,98420.66
2023-04-16T07:31:40.484Z,98417.38
2023-04-16T07:34:09.510Z,98423.84
2023-04-16T07:36:38.686Z,98429.06
2023-04-16T07:39:11.034Z,98427.94
2023-04-16T07:41:41.620Z,98436.88
2023-04-16T07:44:11.313Z,98442.25
2023-04-16T07:46:46.803Z,98442.72
2023-04-16T07:49:16.689Z,98456.44
2023-04-16T07:51:45.875Z,98448.25
2023-04-16T07:54:16.382Z,98463.09
2023-04-16T07:56:46.968Z,98463.94
2023-04-16T08:01:47.572Z,98471.13
2023-04-16T08:04:23.681Z,98467.72
2023-04-16T08:06:52.952Z,98466.88
2023-04-16T08:09:25.707Z,98469.16
2023-04-16T08:11:56.120Z,98472.75
2023-04-16T08:14:24.498Z,98473.56
2023-04-16T08:16:53.374Z,98477.50
2023-04-16T08:19:23.343Z,98481.13
2023-04-16T08:21:54.003Z,98492.69
2023-04-16T08:24:24.981Z,98485.88
2023-04-16T08:26:55.874Z,98487.47
2023-04-16T08:29:28.452Z,98481.28
2023-04-16T08:31:57.422Z,98491.56
2023-04-16T08:34:27.012Z,98489.22
2023-04-16T08:36:56.378Z,98489.69
2023-04-16T08:39:26.183Z,98480.88
2023-04-16T08:41:58.583Z,98490.00
2023-04-16T08:44:34.267Z,98489.00
2023-04-16T08:47:04.962Z,98491.81
2023-04-16T08:49:44.875Z,98494.53
2023-04-16T08:52:20.471Z,98493.41
2023-04-16T08:55:06.993Z,98503.16
2023-04-16T08:57:47.038Z,98502.19
2023-04-16T09:00:18.722Z,98509.50
2023-04-16T09:02:50.840Z,98517.34
2023-04-16T09:05:21.957Z,98511.78
2023-04-16T09:07:51.589Z,98510.97
2023-04-16T09:10:23.266Z,98510.44
2023-04-16T09:12:53.220Z,98506.84
2023-04-16T09:15:23.062Z,98516.97
2023-04-16T09:17:52.860Z,98523.78
2023-04-16T09:20:22.991Z,98524.44
2023-04-16T09:22:52.579Z,98521.84
2023-04-16T09:25:23.572Z,98530.31
2023-04-16T09:27:53.650Z,98524.91
2023-04-16T09:30:28.286Z,98529.13
2023-04-16T09:33:22.492Z,98533.56
2023-04-16T09:35:55.141Z,98533.22
2023-04-16T09:38:24.179Z,98535.66
2023-04-16T09:41:09.468Z,98542.50
2023-04-16T09:43:41.108Z,98543.50
2023-04-16T09:46:13.795Z,98542.66
2023-04-16T09:48:43.314Z,98544.81
2023-04-16T09:51:13.053Z,98549.38
2023-04-16T09:53:43.107Z,98550.34
2023-04-16T09:56:14.742Z,98544.16
2023-04-16T09:58:44.277Z,98556.69
2023-04-16T10:01:14.973Z,98551.81
2023-04-16T10:03:45.304Z,98549.84
2023-04-16T10:06:19.361Z,98557.81
2023-04-16T10:08:50.632Z,98550.78
2023-04-16T10:11:22.893Z,98552.72
2023-04-16T10:13:53.943Z,98561.88
2023-04-16T10:16:25.020Z,98553.03
2023-04-16T10:18:55.221Z,98551.06
2023-04-16T10:21:26.497Z,98554.47
2023-04-16T10:23:56.728Z,98544.13
2023-04-16T10:26:28.716Z,98548.66
2023-04-16T10:29:00.062Z,98548.78
2023-04-16T10:31:30.469Z,98551.50
2023-04-16T10:34:04.389Z,98552.13
2023-04-16T10:36:38.689Z,98544.59
2023-04-16T10:39:14.780Z,98546.94
2023-04-16T10:41:47.209Z,98547.66
2023-04-16T10:44:20.443Z,98542.34
2023-04-16T10:46:50.896Z,98543.63
2023-04-16T10:49:26.091Z,98544.53
2023-04-16T10:51:58.322Z,98548.44
2023-04-16T10:54:30.525Z,98532.81
2023-04-16T10:57:05.211Z,98540.09
2023-04-16T10:59:36.777Z,98534.41
2023-04-16T11:02:13.134Z,98537.03
2023-04-16T11:04:45.454Z,98535.06
2023-04-16T11:07:21.558Z,98531.53
2023-04-16T11:09:59.575Z,98518.34
2023-04-16T11:12:38.580Z,98523.66
2023-04-16T11:15:13.339Z,98524.50
2023-04-16T11:17:45.024Z,98526.56
2023-04-16T11:20:21.652Z,98537.88
2023-04-16T11:22:51.334Z,98528.19
2023-04-16T11:25:24.075Z,98528.72
2023-04-16T11:27:55.465Z,98531.78
2023-04-16T11:30:32.574Z,98530.41
2023-04-16T11:33:04.052Z,98533.13
2023-04-16T11:35:33.276Z,98537.78
2023-04-16T11:38:01.793Z,98534.63
2023-04-16T11:40:32.725Z,98536.50
2023-04-16T11:43:14.405Z,98546.81
2023-04-16T11:45:57.403Z,98537.19
2023-04-16T11:48:27.198Z,98542.50
2023-04-16T11:50:59.998Z,98537.31
2023-04-16T11:53:29.022Z,98546.63
2023-04-16T11:55:59.070Z,98547.69
2023-04-16T11:58:30.402Z,98535.63
2023-04-16T12:01:00.399Z,98544.94
2023-04-16T12:03:44.356Z,98548.75
2023-04-16T12:06:14.401Z,98545.38
2023-04-16T12:08:44.922Z,98537.38
2023-04-16T12:11:13.787Z,98543.13
2023-04-16T12:13:45.277Z,98541.25
2023-04-16T12:16:22.401Z,98544.50
2023-04-16T12:19:03.458Z,98546.56
2023-04-16T12:21:40.986Z,98552.84
2023-04-16T12:24:13.794Z,98546.03
2023-04-16T12:26:45.421Z,98553.09
2023-04-16T12:29:21.678Z,98555.59
2023-04-16T12:31:53.027Z,98553.22
2023-04-16T12:34:27.723Z,98549.22
2023-04-16T12:37:15.436Z,98540.53
2023-04-16T12:39:47.906Z,98549.03
2023-04-16T12:42:16.425Z,98549.41
2023-04-16T12:44:46.793Z,98538.47
2023-04-16T12:47:16.204Z,98543.69
2023-04-16T12:49:46.392Z,98547.97
2023-04-16T12:52:16.503Z,98552.97
2023-04-16T12:54:47.190Z,98538.28
2023-04-16T12:57:16.152Z,98552.38
2023-04-16T12:59:47.656Z,98547.16
2023-04-16T13:02:17.157Z,98543.50
2023-04-16T13:04:47.289Z,98547.97
2023-04-16T13:07:16.850Z,98539.34
2023-04-16T13:09:46.799Z,98545.47
2023-04-16T13:12:15.696Z,98549.09
2023-04-16T13:14:46.917Z,98559.13
2023-04-16T13:17:17.603Z,98554.75
2023-04-16T13:19:46.977Z,98551.91
2023-04-16T13:22:16.086Z,98557.22
2023-04-16T13:24:44.907Z,98556.97
2023-04-16T13:27:16.185Z,98553.63
2023-04-16T13:29:47.695Z,98555.47
2023-04-16T13:32:19.492Z,98540.00
2023-04-16T13:34:48.390Z,98559.34
2023-04-16T13:37:17.677Z,98564.25
2023-04-16T13:39:47.886Z,98567.94
2023-04-16T13:42:17.433Z,98567.19
2023-04-16T13:44:53.572Z,98574.41
2023-04-16T13:47:22.859Z,98568.88
2023-04-16T13:49:51.802Z,98566.72
2023-04-16T13:52:20.725Z,98564.16
2023-04-16T13:54:49.676Z,98560.53
2023-04-16T13:57:19.872Z,98565.78
2023-04-16T13:59:50.848Z,98570.59
2023-04-16T14:02:19.414Z,98568.13
2023-04-16T14:04:49.141Z,98575.44
2023-04-16T14:07:19.234Z,98566.31
2023-04-16T14:09:48.187Z,98574.78
2023-04-16T14:12:18.217Z,98587.03
2023-04-16T14:14:47.730Z,98580.59
2023-04-16T14:17:18.615Z,98583.41
2023-04-16T14:19:47.717Z,98590.91
2023-04-16T14:22:18.505Z,98586.63
2023-04-16T14:24:48.383Z,98578.56
2023-04-16T14:27:17.047Z,98585.47
2023-04-16T14:29:47.592Z,98591.53
2023-04-16T14:32:19.125Z,98586.84
2023-04-16T14:34:49.183Z,98585.06
2023-04-16T14:37:19.505Z,98595.56
2023-04-16T14:39:49.833Z,98581.38
2023-04-16T14:42:19.891Z,98583.66
2023-04-16T14:44:49.862Z,98598.78
2023-04-16T14:47:19.672Z,98582.19
2023-04-16T14:49:48.632Z,98586.22
2023-04-16T14:52:19.794Z,98582.56
2023-04-16T14:54:49.812Z,98583.31
2023-04-16T14:57:20.284Z,98586.84
2023-04-16T14:59:50.346Z,98595.50
2023-04-16T15:02:22.124Z,98591.84
2023-04-16T15:04:51.360Z,98600.59
2023-04-16T15:07:21.313Z,98587.72
2023-04-16T15:09:51.586Z,98586.69
2023-04-16T15:12:22.370Z,98593.44
2023-04-16T15:14:51.737Z,98595.81
2023-04-16T15:17:23.286Z,98589.75
2023-04-16T15:19:54.172Z,98588.97
2023-04-16T15:22:23.129Z,98590.56
2023-04-16T15:24:51.697Z,98586.09
2023-04-16T15:27:20.795Z,98586.91
2023-04-16T15:29:50.289Z,98598.06
2023-04-16T15:32:20.360Z,98599.47
2023-04-16T15:34:51.453Z,98587.72
2023-04-16T15:37:22.619Z,98595.81
2023-04-16T15:39:52.544Z,98595.50
2023-04-16T15:42:22.531Z,98593.19
2023-04-16T15:44:52.137Z,98601.06
2023-04-16T15:47:21.582Z,98590.97
2023-04-16T15:49:51.815Z,98594.56
2023-04-16T15:52:21.552Z,98595.81
2023-04-16T15:54:51.909Z,98594.97
2023-04-16T15:57:21.848Z,98589.97
2023-04-16T16:00:08.745Z,98590.19
2023-04-16T16:02:39.481Z,98593.03
2023-04-16T16:05:12.716Z,98601.84
2023-04-16T16:07:42.389Z,98600.56
2023-04-16T16:10:13.597Z,98595.63
2023-04-16T16:12:42.778Z,98606.69
2023-04-16T16:15:12.524Z,98604.13
2023-04-16T16:17:41.858Z,98600.50
2023-04-16T16:20:12.823Z,98604.41
2023-04-16T16:22:45.284Z,98606.22
2023-04-16T16:25:15.294Z,98600.63
2023-04-16T16:27:44.872Z,98604.63
2023-04-16T16:30:16.357Z,98613.28
2023-04-16T16:32:47.253Z,98609.22
2023-04-16T16:35:19.200Z,98605.78
2023-04-16T16:37:49.129Z,98602.56
2023-04-16T16:40:18.662Z,98602.34
2023-04-16T16:42:48.041Z,98602.34
2023-04-16T16:45:16.864Z,98603.97
2023-04-16T16:47:46.927Z,98603.97
2023-04-16T16:50:18.169Z,98604.41
2023-04-16T16:52:47.207Z,98608.78
2023-04-16T16:55:18.314Z,98605.94
2023-04-16T16:57:49.498Z,98606.00
2023-04-16T17:00:23.304Z,98610.44
2023-04-16T17:02:53.455Z,98611.63
2023-04-16T17:05:24.164Z,98607.31
2023-04-16T17:07:53.044Z,98611.53
2023-04-16T17:10:23.228Z,98610.75
2023-04-16T17:12:52.856Z,98620.44
2023-04-16T17:15:22.098Z,98615.56
2023-04-16T17:17:51.107Z,98613.50
2023-04-16T17:20:20.928Z,98618.38
2023-04-16T17:22:52.281Z,98615.28
2023-04-16T17:25:21.514Z,98617.47
2023-04-16T17:27:51.550Z,98627.75
2023-04-16T17:30:21.407Z,98628.66
2023-04-16T17:32:51.035Z,98631.84
2023-04-16T17:35:21.059Z,98627.03
2023-04-16T17:37:51.778Z,98627.19
2023-04-16T17:40:20.486Z,98626.59
2023-04-16T17:42:51.412Z,98632.66
2023-04-16T17:45:20.563Z,98633.47
2023-04-16T17:47:49.567Z,98639.81
2023-04-16T17:50:19.749Z,98641.00
2023-04-16T17:52:51.352Z,98649.41
2023-04-16T17:55:21.279Z,98651.25
2023-04-16T17:57:52.482Z,98650.06
2023-04-16T18:00:23.637Z,98643.38
2023-04-16T18:02:53.435Z,98643.66
2023-04-16T18:05:22.642Z,98655.16
2023-04-16T18:07:53.371Z,98653.31
2023-04-16T18:10:22.964Z,98651.50
2023-04-16T18:12:51.855Z,98658.56
2023-04-16T18:15:21.271Z,98655.16
2023-04-16T18:17:51.109Z,98657.78
2023-04-16T18:20:21.539Z,98664.38
2023-04-16T18:22:52.812Z,98661.94
2023-04-16T18:25:32.239Z,98657.66
2023-04-16T18:28:04.643Z,98667.91
2023-04-16T18:30:36.131Z,98674.94
2023-04-16T18:33:37.438Z,98669.09
2023-04-16T18:35:55.562Z,98672.06
2023-04-16T18:38:26.801Z,98670.44
2023-04-16T18:40:56.881Z,98674.88
2023-04-16T18:43:26.414Z,98675.59
2023-04-16T18:45:55.823Z,98687.25
2023-04-16T18:48:26.120Z,98678.38
2023-04-16T18:50:58.098Z,98688.25
2023-04-16T18:53:29.165Z,98684.38
2023-04-16T18:55:59.977Z,98686.16
2023-04-16T18:58:29.152Z,98681.53
2023-04-16T19:00:59.475Z,98681.75
2023-04-16T19:03:31.007Z,98696.81
2023-04-16T19:06:01.070Z,98693.41
2023-04-16T19:08:32.257Z,98695.22
2023-04-16T19:11:01.489Z,98699.19
2023-04-16T19:13:32.817Z,98700.81
2023-04-16T19:16:06.032Z,98700.00
2023-04-16T19:18:36.368Z,98703.81
2023-04-16T19:21:07.152Z,98702.69
2023-04-16T19:23:38.562Z,98705.16
2023-04-16T19:26:08.064Z,98704.78
2023-04-16T19:28:38.890Z,98703.06
2023-04-16T19:31:10.246Z,98698.44
2023-04-16T19:33:41.781Z,98698.78
2023-04-16T19:36:11.221Z,98705.22
2023-04-16T19:38:43.250Z,98702.50
2023-04-16T19:41:13.226Z,98705.63
2023-04-16T19:43:42.782Z,98718.75
2023-04-16T19:46:12.840Z,98704.34
2023-04-16T19:48:42.902Z,98709.94
2023-04-16T19:51:13.919Z,98707.84
2023-04-16T19:53:46.391Z,98709.47
2023-04-16T19:56:17.908Z,98717.53
2023-04-16T19:58:48.360Z,98714.34
2023-04-16T20:01:17.365Z,98716.50
2023-04-16T20:03:46.759Z,98728.75
2023-04-16T20:06:17.477Z,98716.94
2023-04-16T20:08:49.350Z,98715.66
2023-04-16T20:11:19.425Z,98706.53
2023-04-16T20:13:48.945Z,98709.00
2023-04-16T20:16:23.355Z,98711.47
2023-04-16T20:18:54.825Z,98717.88
2023-04-16T20:21:25.667Z,98714.63
2023-04-16T20:23:57.019Z,98717.72
2023-04-16T20:26:28.567Z,98721.94
2023-04-16T20:28:57.597Z,98724.28
2023-04-16T20:31:27.434Z,98722.66
2023-04-16T20:33:55.960Z,98716.78
2023-04-16T20:36:26.605Z,98712.88
2023-04-16T20:38:59.939Z,98715.31
2023-04-16T20:41:30.339Z,98723.00
2023-04-16T20:44:05.745Z,98722.69
2023-04-16T20:46:36.318Z,98720.06
2023-04-16T20:49:06.299Z,98717.47
2023-04-16T20:51:38.468Z,98718.00
2023-04-16T20:54:10.877Z,98711.94
2023-04-16T20:56:40.198Z,98711.94
2023-04-16T20:59:10.295Z,98711.84
2023-04-16T21:01:40.804Z,98707.41
2023-04-16T21:04:10.788Z,98705.78
2023-04-16T21:06:42.927Z,98711.00
2023-04-16T21:09:14.695Z,98712.00
2023-04-16T21:11:46.450Z,98702.84
2023-04-16T21:14:15.625Z,98706.94
2023-04-16T21:16:45.613Z,98710.38
2023-04-16T21:19:15.621Z,98710.38
2023-04-16T21:21:46.759Z,98699.91
2023-04-16T21:24:18.816Z,98705.16
2023-04-16T21:26:47.876Z,98705.47
2023-04-16T21:29:17.889Z,98696.38
2023-04-16T21:31:47.342Z,98690.00
2023-04-16T21:34:16.862Z,98699.50
2023-04-16T21:36:45.337Z,98704.59
2023-04-16T21:39:16.589Z,98699.84
2023-04-16T21:41:48.690Z,98695.94
2023-04-16T21:44:18.152Z,98698.06
2023-04-16T21:46:48.147Z,98708.53
2023-04-16T21:49:17.638Z,98700.34
2023-04-16T21:51:48.338Z,98691.69
2023-04-16T21:54:20.766Z,98695.13
2023-04-16T21:56:52.227Z,98699.38
2023-04-16T21:59:21.627Z,98706.22
2023-04-16T22:01:51.618Z,98704.25
2023-04-16T22:04:26.720Z,98710.47
2023-04-16T22:06:57.706Z,98710.47
2023-04-16T22:09:27.343Z,98709.84
2023-04-16T22:11:59.354Z,98709.47
2023-04-16T22:14:29.590Z,98710.31
2023-04-16T22:17:00.328Z,98716.66
2023-04-16T22:19:30.145Z,98711.78
2023-04-16T22:21:59.728Z,98711.78
2023-04-16T22:24:29.970Z,98706.56
2023-04-16T22:27:01.983Z,98709.00
2023-04-16T22:29:31.305Z,98702.97
2023-04-16T22:32:02.609Z,98703.31
2023-04-16T22:34:33.221Z,98702.84
2023-04-16T22:37:03.151Z,98700.72
2023-04-16T22:39:32.650Z,98697.47
2023-04-16T22:42:03.699Z,98695.84
2023-04-16T22:44:32.556Z,98696.53
2023-04-16T22:47:01.503Z,98692.94
2023-04-16T22:49:33.731Z,98685.72
2023-04-16T22:52:03.046Z,98689.31
2023-04-16T22:54:32.235Z,98685.56
2023-04-16T22:57:03.099Z,98689.31
2023-04-16T22:59:33.545Z,98694.75
2023-04-16T23:02:02.975Z,98691.94
2023-04-16T23:04:33.870Z,98697.81
2023-04-16T23:07:03.846Z,98696.81
2023-04-16T23:09:34.798Z,98700.09
2023-04-16T23:12:07.937Z,98700.09
2023-04-16T23:14:38.484Z,98696.03
2023-04-16T23:17:08.384Z,98689.78
2023-04-16T23:19:37.839Z,98692.41
2023-04-16T23:22:07.830Z,98693.22
2023-04-16T23:24:37.424Z,98696.19
2023-04-16T23:27:09.377Z,98689.16
2023-04-16T23:29:38.665Z,98697.81
2023-04-16T23:32:08.351Z,98695.84
2023-04-16T23:34:37.272Z,98693.22
2023-04-16T23:37:07.153Z,98693.22
2023-04-16T23:39:36.662Z,98694.91
2023-04-16T23:42:07.813Z,98698.50
2023-04-16T23:44:37.368Z,98687.06
2023-04-16T23:47:07.621Z,98691.31
2023-04-16T23:49:37.355Z,98693.44
2023-04-16T23:52:08.387Z,98689.03
2023-04-16T23:54:38.384Z,98689.03
2023-04-16T23:57:09.753Z,98689.03
2023-04-16T23:59:39.105Z,98685.75
